Time;durP1;ratioP1;P1;durP2;ratioP2;P2;SDS_P1;SDS_P2;PMS_P1;PMS_P2;Temp;Humidity;BMP_temperature;BMP_pressure;BME280_temperature;BME280_humidity;BME280_pressure;Samples;Min_cycle;Max_cycle;Signal;HPM_P1;HPM_P2
2022/08/31 00:06:54;;;;;;;2.80;1.90;;;;;;;;;;8284008;28;20111;-71
2022/08/31 00:10:55;;;;;;;9.63;2.10;;;;;;;;;;8284015;28;20566;-70
2022/08/31 00:14:55;;;;;;;3.35;2.13;;;;;;;;;;8282409;28;20785;-71
2022/08/31 00:18:55;;;;;;;7.80;2.17;;;;;;;;;;8280072;28;20141;-70
2022/08/31 00:22:55;;;;;;;3.25;2.05;;;;;;;;;;8281612;28;20996;-71
2022/08/31 00:26:56;;;;;;;3.57;2.13;;;;;;;;;;8288555;28;20029;-71
2022/08/31 00:30:56;;;;;;;2.47;1.90;;;;;;;;;;8274820;28;20155;-72
2022/08/31 00:34:56;;;;;;;4.82;2.28;;;;;;;;;;8290054;28;20029;-71
2022/08/31 00:38:57;;;;;;;4.27;2.30;;;;;;;;;;8288227;28;20129;-71
2022/08/31 00:42:58;;;;;;;5.47;2.33;;;;;;;;;;8285928;28;20025;-71
2022/08/31 00:46:58;;;;;;;2.85;2.10;;;;;;;;;;8288106;28;20920;-71
2022/08/31 00:50:59;;;;;;;6.93;2.25;;;;;;;;;;8287959;28;20072;-71
2022/08/31 00:55:01;;;;;;;5.10;2.22;;;;;;;;;;8289965;28;20646;-71
2022/08/31 00:59:02;;;;;;;3.75;2.20;;;;;;;;;;8288927;28;20061;-70
2022/08/31 01:03:04;;;;;;;2.33;2.00;;;;;;;;;;8287877;28;20470;-71
2022/08/31 01:07:05;;;;;;;4.82;2.22;;;;;;;;;;8287268;28;20028;-71
2022/08/31 01:11:05;;;;;;;3.38;2.15;;;;;;;;;;8287904;28;20138;-70
2022/08/31 01:15:07;;;;;;;4.07;2.20;;;;;;;;;;8286048;28;20037;-71
2022/08/31 01:19:12;;;;;;;2.45;2.00;;;;;;;;;;8288592;28;20029;-71
2022/08/31 01:23:32;;;;;;;3.25;2.10;;;;;;;;;;8285874;28;20041;-71
2022/08/31 01:27:33;;;;;;;4.28;2.30;;;;;;;;;;8287259;28;20024;-71
2022/08/31 01:31:41;;;;;;;4.88;2.28;;;;;;;;;;8288119;28;20137;-71
2022/08/31 01:35:43;;;;;;;5.10;2.08;;;;;;;;;;8286010;28;20702;-71
2022/08/31 01:39:43;;;;;;;2.47;1.88;;;;;;;;;;8278616;28;20026;-70
2022/08/31 01:43:44;;;;;;;2.90;1.80;;;;;;;;;;8287925;28;21000;-70
2022/08/31 01:47:44;;;;;;;3.57;2.17;;;;;;;;;;8269409;28;20132;-70
2022/08/31 01:51:44;;;;;;;5.15;2.30;;;;;;;;;;8285705;28;20140;-70
2022/08/31 01:55:45;;;;;;;4.13;2.00;;;;;;;;;;8277662;28;20029;-71
2022/08/31 01:59:45;;;;;;;4.40;2.20;;;;;;;;;;8287330;28;20315;-71
2022/08/31 02:03:45;;;;;;;3.15;2.33;;;;;;;;;;8285491;28;20833;-71
2022/08/31 02:07:45;;;;;;;3.20;1.85;;;;;;;;;;8286255;28;20029;-70
2022/08/31 02:11:46;;;;;;;2.35;2.10;;;;;;;;;;8284539;28;20034;-71
2022/08/31 02:15:46;;;;;;;4.35;2.08;;;;;;;;;;8285048;28;20045;-71
2022/08/31 02:19:46;;;;;;;4.70;2.05;;;;;;;;;;8287818;28;20025;-71
2022/08/31 02:23:46;;;;;;;2.65;2.30;;;;;;;;;;8284908;28;20032;-71
2022/08/31 02:27:47;;;;;;;2.87;1.90;;;;;;;;;;8276944;28;20080;-71
2022/08/31 02:31:47;;;;;;;3.10;1.90;;;;;;;;;;8284165;28;20038;-71
2022/08/31 02:35:47;;;;;;;3.13;2.10;;;;;;;;;;8283729;28;20363;-71
2022/08/31 02:39:47;;;;;;;3.80;2.25;;;;;;;;;;8284769;28;20040;-70
2022/08/31 02:43:47;;;;;;;3.70;2.20;;;;;;;;;;8283992;28;20030;-71
2022/08/31 02:47:48;;;;;;;2.15;1.95;;;;;;;;;;8281892;28;20136;-71
2022/08/31 02:51:48;;;;;;;2.47;2.00;;;;;;;;;;8285369;28;20494;-71
2022/08/31 02:55:48;;;;;;;3.72;1.90;;;;;;;;;;8285828;28;20759;-71
2022/08/31 02:59:48;;;;;;;2.75;2.30;;;;;;;;;;8285227;28;20027;-71
2022/08/31 03:03:49;;;;;;;8.63;2.50;;;;;;;;;;8273047;28;20041;-71
2022/08/31 03:07:49;;;;;;;3.40;2.27;;;;;;;;;;8274901;28;20994;-71
2022/08/31 03:11:49;;;;;;;2.95;2.10;;;;;;;;;;8283966;28;20276;-71
2022/08/31 03:15:50;;;;;;;5.40;2.30;;;;;;;;;;8260592;28;20037;-71
2022/08/31 03:19:53;;;;;;;2.38;2.05;;;;;;;;;;8283469;28;20034;-70
2022/08/31 03:23:53;;;;;;;4.60;2.10;;;;;;;;;;8282780;28;20075;-70
2022/08/31 03:27:53;;;;;;;2.20;1.97;;;;;;;;;;8283953;28;20052;-71
2022/08/31 03:31:54;;;;;;;3.00;2.10;;;;;;;;;;8282464;28;20067;-70
2022/08/31 03:35:54;;;;;;;3.70;2.47;;;;;;;;;;8283270;28;20021;-69
2022/08/31 03:39:54;;;;;;;5.20;2.50;;;;;;;;;;8284066;28;20563;-70
2022/08/31 03:43:55;;;;;;;4.70;2.60;;;;;;;;;;8280983;28;20085;-70
2022/08/31 03:47:56;;;;;;;2.05;1.92;;;;;;;;;;8285366;28;20335;-70
2022/08/31 03:51:57;;;;;;;3.33;2.13;;;;;;;;;;8282894;28;20053;-70
2022/08/31 03:56:01;;;;;;;4.50;1.83;;;;;;;;;;8282797;28;20036;-70
2022/08/31 04:00:02;;;;;;;3.03;2.20;;;;;;;;;;8280011;28;20391;-70
2022/08/31 04:04:03;;;;;;;2.50;2.15;;;;;;;;;;8280939;28;20035;-70
2022/08/31 04:08:03;;;;;;;2.78;2.28;;;;;;;;;;8284465;28;20101;-70
2022/08/31 04:12:03;;;;;;;2.95;2.30;;;;;;;;;;8282887;28;20076;-70
2022/08/31 04:16:07;;;;;;;3.75;2.03;;;;;;;;;;8282342;28;20053;-70
2022/08/31 04:20:09;;;;;;;2.35;2.15;;;;;;;;;;8282790;28;20172;-70
2022/08/31 04:24:10;;;;;;;3.00;2.13;;;;;;;;;;8283396;28;20148;-70
2022/08/31 04:28:10;;;;;;;2.75;2.03;;;;;;;;;;8284898;28;20088;-70
2022/08/31 04:32:11;;;;;;;4.05;2.15;;;;;;;;;;8280601;28;20041;-69
2022/08/31 04:36:12;;;;;;;3.05;2.40;;;;;;;;;;8280207;28;20022;-70
2022/08/31 04:40:18;;;;;;;3.78;2.22;;;;;;;;;;8281347;28;20141;-69
2022/08/31 04:44:18;;;;;;;2.70;2.20;;;;;;;;;;8282022;28;20040;-69
2022/08/31 04:48:19;;;;;;;2.20;2.00;;;;;;;;;;8283200;28;20037;-70
2022/08/31 04:52:19;;;;;;;3.80;2.30;;;;;;;;;;8282439;28;20025;-70
2022/08/31 04:56:23;;;;;;;5.13;2.17;;;;;;;;;;8282788;28;20860;-70
2022/08/31 05:00:24;;;;;;;3.95;2.35;;;;;;;;;;8283472;28;20042;-70
2022/08/31 05:04:24;;;;;;;3.45;2.22;;;;;;;;;;8282799;28;20378;-69
2022/08/31 05:08:24;;;;;;;4.03;2.20;;;;;;;;;;8284432;28;20092;-70
2022/08/31 05:12:25;;;;;;;3.45;2.15;;;;;;;;;;8284523;28;20033;-70
2022/08/31 05:16:25;;;;;;;2.50;2.10;;;;;;;;;;8286977;28;20045;-70
2022/08/31 05:20:25;;;;;;;2.15;1.95;;;;;;;;;;8286861;28;20207;-70
2022/08/31 05:24:26;;;;;;;2.97;2.10;;;;;;;;;;8287307;28;20137;-69
2022/08/31 05:28:26;;;;;;;2.55;1.95;;;;;;;;;;8287064;28;20019;-70
2022/08/31 05:32:26;;;;;;;3.90;2.05;;;;;;;;;;8286004;28;20063;-70
2022/08/31 05:36:26;;;;;;;3.08;2.25;;;;;;;;;;8288291;28;20029;-70
2022/08/31 05:40:26;;;;;;;6.60;2.60;;;;;;;;;;8287885;28;20038;-70
2022/08/31 05:44:27;;;;;;;4.57;2.47;;;;;;;;;;8287952;28;20025;-69
2022/08/31 05:48:32;;;;;;;5.32;2.33;;;;;;;;;;8286260;28;20118;-71
2022/08/31 05:52:32;;;;;;;3.58;2.30;;;;;;;;;;8285061;28;20079;-72
2022/08/31 05:56:33;;;;;;;3.30;2.27;;;;;;;;;;8273263;28;20029;-72
2022/08/31 06:00:33;;;;;;;3.80;2.40;;;;;;;;;;8286259;28;20772;-72
2022/08/31 06:04:34;;;;;;;4.50;2.60;;;;;;;;;;8287219;28;20091;-72
2022/08/31 06:08:35;;;;;;;4.47;2.60;;;;;;;;;;8287199;28;20056;-70
2022/08/31 06:12:37;;;;;;;5.90;2.50;;;;;;;;;;8284372;28;20025;-70
2022/08/31 06:16:38;;;;;;;5.10;2.67;;;;;;;;;;8285981;28;20049;-70
2022/08/31 06:20:38;;;;;;;3.80;2.40;;;;;;;;;;8284765;28;20060;-70
2022/08/31 06:24:39;;;;;;;4.68;2.25;;;;;;;;;;8284792;28;20762;-70
2022/08/31 06:28:39;;;;;;;4.47;2.43;;;;;;;;;;8286324;28;20026;-70
2022/08/31 06:32:40;;;;;;;4.80;2.70;;;;;;;;;;8270198;28;20110;-70
2022/08/31 06:36:40;;;;;;;4.17;2.53;;;;;;;;;;8271349;28;20025;-70
2022/08/31 06:40:40;;;;;;;2.95;2.33;;;;;;;;;;8280028;28;20029;-71
2022/08/31 06:44:40;;;;;;;2.93;2.60;;;;;;;;;;8283689;28;20041;-70
2022/08/31 06:48:40;;;;;;;5.83;2.50;;;;;;;;;;8283247;28;20044;-70
2022/08/31 06:52:41;;;;;;;6.95;2.92;;;;;;;;;;8282271;28;20021;-70
2022/08/31 06:56:41;;;;;;;4.78;2.72;;;;;;;;;;8285405;28;20053;-70
2022/08/31 07:00:41;;;;;;;4.07;3.00;;;;;;;;;;8283795;28;20132;-70
2022/08/31 07:04:42;;;;;;;4.13;2.72;;;;;;;;;;8286115;28;20473;-70
2022/08/31 07:08:43;;;;;;;5.53;2.78;;;;;;;;;;8283844;28;20045;-70
2022/08/31 07:12:43;;;;;;;4.78;3.17;;;;;;;;;;8282610;28;20036;-70
2022/08/31 07:16:44;;;;;;;4.40;3.10;;;;;;;;;;8274019;28;20049;-70
2022/08/31 07:20:44;;;;;;;6.00;3.10;;;;;;;;;;8278951;28;20022;-70
2022/08/31 07:24:45;;;;;;;6.87;3.17;;;;;;;;;;8286325;28;20700;-70
2022/08/31 07:28:52;;;;;;;4.03;3.60;;;;;;;;;;8282124;28;20903;-70
2022/08/31 07:32:52;;;;;;;6.22;3.53;;;;;;;;;;8282975;28;20042;-70
2022/08/31 07:45:31;;;;;;;4.30;3.60;;;;;;;;;;8282963;28;20040;-68
2022/08/31 07:49:31;;;;;;;4.25;3.40;;;;;;;;;;8283054;28;20375;-68
2022/08/31 07:53:46;;;;;;;4.90;3.60;;;;;;;;;;8281942;28;20030;-69
2022/08/31 07:57:46;;;;;;;5.18;3.22;;;;;;;;;;8281279;28;20123;-68
2022/08/31 08:01:47;;;;;;;3.67;3.37;;;;;;;;;;8281706;28;20071;-69
2022/08/31 08:05:47;;;;;;;3.83;3.40;;;;;;;;;;8268754;28;20276;-69
2022/08/31 08:09:48;;;;;;;5.20;3.83;;;;;;;;;;8283472;28;20130;-69
2022/08/31 08:13:48;;;;;;;9.82;3.80;;;;;;;;;;8280671;28;20033;-69
2022/08/31 08:17:48;;;;;;;5.63;3.22;;;;;;;;;;8280657;28;20047;-69
2022/08/31 08:21:48;;;;;;;7.03;3.30;;;;;;;;;;8280255;28;20797;-69
2022/08/31 08:25:50;;;;;;;7.13;4.07;;;;;;;;;;8280641;28;20435;-69
2022/08/31 08:29:50;;;;;;;5.65;4.07;;;;;;;;;;8283596;28;20053;-69
2022/08/31 08:33:51;;;;;;;6.00;3.47;;;;;;;;;;8277315;28;20041;-69
2022/08/31 08:37:51;;;;;;;5.35;4.30;;;;;;;;;;8265649;28;20084;-68
2022/08/31 08:41:53;;;;;;;6.25;4.50;;;;;;;;;;8282301;28;20056;-68
2022/08/31 08:45:54;;;;;;;5.03;3.85;;;;;;;;;;8285331;28;20032;-69
2022/08/31 08:49:55;;;;;;;4.57;4.07;;;;;;;;;;8287294;28;20029;-69
2022/08/31 08:54:00;;;;;;;5.18;3.97;;;;;;;;;;8287432;28;20034;-69
2022/08/31 08:58:04;;;;;;;4.93;3.50;;;;;;;;;;8286753;28;20026;-69
2022/08/31 09:02:05;;;;;;;4.28;3.88;;;;;;;;;;8285615;28;20038;-69
2022/08/31 09:06:11;;;;;;;5.32;3.78;;;;;;;;;;8289144;28;20069;-69
2022/08/31 09:10:11;;;;;;;4.38;3.65;;;;;;;;;;8285903;28;20022;-69
2022/08/31 09:14:31;;;;;;;4.88;3.78;;;;;;;;;;8286702;28;20357;-69
2022/08/31 09:18:51;;;;;;;4.55;4.10;;;;;;;;;;8286986;28;20133;-69
2022/08/31 09:22:54;;;;;;;6.72;4.03;;;;;;;;;;8285750;28;20074;-70
2022/08/31 09:26:54;;;;;;;4.68;4.07;;;;;;;;;;8287076;28;20095;-69
2022/08/31 09:30:54;;;;;;;4.35;3.78;;;;;;;;;;8285200;28;20773;-69
2022/08/31 09:35:02;;;;;;;5.10;4.30;;;;;;;;;;8286660;28;20021;-70
2022/08/31 09:39:15;;;;;;;6.43;3.88;;;;;;;;;;8284590;28;20117;-69
2022/08/31 09:43:23;;;;;;;5.53;3.95;;;;;;;;;;8287353;28;20762;-69
2022/08/31 09:47:47;;;;;;;5.38;4.40;;;;;;;;;;8285384;28;20124;-70
2022/08/31 09:51:48;;;;;;;6.28;4.03;;;;;;;;;;8286127;28;20029;-69
2022/08/31 09:56:02;;;;;;;4.88;3.60;;;;;;;;;;8289482;28;20105;-69
2022/08/31 10:00:02;;;;;;;;;;;;;;;;;;8286585;28;20981;-70
2022/08/31 10:04:24;;;;;;;4.63;3.78;;;;;;;;;;8283529;28;20492;-69
2022/08/31 10:08:56;;;;;;;5.25;4.30;;;;;;;;;;8286188;28;20473;-70
2022/08/31 10:13:00;;;;;;;5.28;3.58;;;;;;;;;;8283900;28;20033;-70
2022/08/31 10:17:01;;;;;;;;;;;;;;;;;;8284024;28;20045;-69
2022/08/31 10:21:07;;;;;;;7.43;3.70;;;;;;;;;;8285349;28;19913;-69
2022/08/31 10:25:19;;;;;;;5.53;3.78;;;;;;;;;;8283751;28;20022;-71
2022/08/31 10:29:41;;;;;;;6.97;3.78;;;;;;;;;;8287472;28;20451;-70
2022/08/31 10:38:14;;;;;;;3.83;3.50;;;;;;;;;;8285372;28;20099;-70
2022/08/31 10:42:23;;;;;;;4.95;3.67;;;;;;;;;;8282895;28;20033;-70
2022/08/31 10:46:23;;;;;;;7.35;3.90;;;;;;;;;;8284958;28;20148;-70
2022/08/31 10:50:32;;;;;;;5.55;4.28;;;;;;;;;;8281544;28;20070;-70
2022/08/31 10:54:47;;;;;;;8.95;4.03;;;;;;;;;;8285138;28;20033;-70
2022/08/31 10:58:47;;;;;;;8.27;5.00;;;;;;;;;;8282528;28;20107;-70
2022/08/31 11:02:57;;;;;;;4.93;3.97;;;;;;;;;;8283664;28;20034;-70
2022/08/31 11:07:14;;;;;;;4.38;3.55;;;;;;;;;;8283425;28;20021;-70
2022/08/31 11:11:18;;;;;;;5.70;3.80;;;;;;;;;;8281732;28;20032;-70
2022/08/31 11:15:27;;;;;;;4.80;4.10;;;;;;;;;;8281756;28;20034;-71
2022/08/31 11:19:41;;;;;;;4.78;3.92;;;;;;;;;;8282176;28;20034;-70
2022/08/31 11:23:53;;;;;;;6.95;4.05;;;;;;;;;;8281013;28;20497;-71
2022/08/31 11:27:57;;;;;;;4.43;3.88;;;;;;;;;;8280029;28;20029;-71
2022/08/31 11:32:17;;;;;;;4.80;4.30;;;;;;;;;;8281346;28;20045;-71
2022/08/31 11:36:45;;;;;;;6.75;4.10;;;;;;;;;;8284653;28;20033;-70
2022/08/31 11:40:57;;;;;;;6.25;4.10;;;;;;;;;;8280700;28;20088;-71
2022/08/31 11:45:04;;;;;;;5.72;4.30;;;;;;;;;;8258583;28;20050;-74
2022/08/31 11:49:04;;;;;;;5.38;3.92;;;;;;;;;;8284221;28;20045;-71
2022/08/31 11:53:24;;;;;;;4.43;4.03;;;;;;;;;;8272048;28;20900;-70
2022/08/31 11:57:27;;;;;;;4.47;4.05;;;;;;;;;;8282493;28;20136;-70
2022/08/31 12:01:32;;;;;;;4.90;4.10;;;;;;;;;;8279557;28;20041;-70
2022/08/31 12:05:49;;;;;;;4.40;4.00;;;;;;;;;;8279567;28;20415;-70
2022/08/31 12:09:56;;;;;;;5.95;4.07;;;;;;;;;;8286390;28;20953;-70
2022/08/31 12:14:19;;;;;;;4.93;4.20;;;;;;;;;;8266334;28;20030;-70
2022/08/31 12:18:40;;;;;;;4.20;3.72;;;;;;;;;;8267615;28;20037;-71
2022/08/31 12:27:15;;;;;;;4.45;4.05;;;;;;;;;;8283360;28;20819;-70
2022/08/31 12:31:16;;;;;;;4.65;4.13;;;;;;;;;;8282462;28;20137;-70
2022/08/31 12:35:18;;;;;;;5.53;4.30;;;;;;;;;;8282388;28;20043;-70
2022/08/31 12:39:20;;;;;;;4.50;3.67;;;;;;;;;;8281405;28;20060;-70
2022/08/31 12:43:23;;;;;;;4.75;4.03;;;;;;;;;;8267539;28;20727;-70
2022/08/31 12:47:33;;;;;;;6.63;4.38;;;;;;;;;;8283194;28;20026;-70
2022/08/31 12:51:43;;;;;;;6.93;4.28;;;;;;;;;;8283017;28;20034;-70
2022/08/31 12:56:01;;;;;;;4.88;3.95;;;;;;;;;;8278091;28;20100;-71
2022/08/31 13:00:04;;;;;;;5.63;4.13;;;;;;;;;;8264650;28;20038;-72
2022/08/31 13:04:05;;;;;;;6.22;4.15;;;;;;;;;;8263622;28;20073;-71
2022/08/31 13:08:21;;;;;;;5.85;4.97;;;;;;;;;;8279350;28;20029;-71
2022/08/31 13:12:22;;;;;;;5.18;4.68;;;;;;;;;;8280269;28;20091;-72
2022/08/31 13:16:22;;;;;;;6.28;4.57;;;;;;;;;;8277826;28;20099;-71
2022/08/31 13:20:25;;;;;;;5.77;5.27;;;;;;;;;;8277467;28;20117;-71
2022/08/31 13:24:30;;;;;;;8.25;5.90;;;;;;;;;;8278272;28;20906;-71
2022/08/31 13:28:32;;;;;;;14.85;5.90;;;;;;;;;;8278145;28;20030;-71
2022/08/31 13:32:33;;;;;;;9.00;5.90;;;;;;;;;;8278485;28;20420;-71
2022/08/31 13:36:39;;;;;;;6.18;5.57;;;;;;;;;;8285810;28;20033;-71
2022/08/31 13:40:47;;;;;;;5.43;4.38;;;;;;;;;;8284430;28;20033;-71
2022/08/31 13:44:52;;;;;;;5.55;4.90;;;;;;;;;;8286553;28;20021;-71
2022/08/31 13:49:00;;;;;;;5.40;4.90;;;;;;;;;;8282645;28;20038;-71
2022/08/31 13:53:02;;;;;;;5.40;4.70;;;;;;;;;;8284472;28;20075;-71
2022/08/31 13:57:09;;;;;;;6.38;5.05;;;;;;;;;;8285353;28;20384;-71
2022/08/31 14:01:20;;;;;;;5.28;4.40;;;;;;;;;;8283492;28;20034;-71
2022/08/31 14:05:28;;;;;;;6.30;4.35;;;;;;;;;;8283915;28;20021;-71
2022/08/31 14:09:28;;;;;;;5.32;4.82;;;;;;;;;;8283904;28;20048;-71
2022/08/31 14:13:33;;;;;;;4.32;3.97;;;;;;;;;;8284754;28;20303;-71
2022/08/31 14:17:40;;;;;;;4.80;4.28;;;;;;;;;;8284137;28;20073;-71
2022/08/31 14:21:42;;;;;;;4.97;4.47;;;;;;;;;;8284629;28;20415;-72
2022/08/31 14:25:42;;;;;;;6.72;4.30;;;;;;;;;;8286515;28;20040;-70
2022/08/31 14:29:42;;;;;;;4.38;3.88;;;;;;;;;;8284775;28;20029;-70
2022/08/31 14:33:43;;;;;;;4.45;3.55;;;;;;;;;;8284291;28;20048;-71
2022/08/31 14:37:44;;;;;;;5.18;4.10;;;;;;;;;;8284331;28;20055;-71
2022/08/31 14:41:44;;;;;;;6.20;4.03;;;;;;;;;;8282493;28;20026;-70
2022/08/31 14:45:45;;;;;;;6.45;4.13;;;;;;;;;;8283240;28;20036;-71
2022/08/31 14:49:45;;;;;;;7.03;3.93;;;;;;;;;;8282590;28;20031;-71
2022/08/31 14:53:46;;;;;;;4.20;3.80;;;;;;;;;;8283112;28;21434;-72
2022/08/31 14:57:54;;;;;;;4.80;4.03;;;;;;;;;;8284135;28;20033;-71
2022/08/31 15:01:56;;;;;;;6.63;4.10;;;;;;;;;;8279220;28;20145;-71
2022/08/31 15:06:02;;;;;;;8.18;4.68;;;;;;;;;;8282742;28;20025;-71
2022/08/31 15:10:02;;;;;;;4.82;4.22;;;;;;;;;;8280648;28;20026;-71
2022/08/31 15:14:04;;;;;;;4.80;3.90;;;;;;;;;;8279264;28;20813;-71
2022/08/31 15:18:05;;;;;;;3.97;3.58;;;;;;;;;;8278099;28;20044;-71
2022/08/31 15:22:09;;;;;;;4.45;4.00;;;;;;;;;;8280418;28;20044;-71
2022/08/31 15:26:11;;;;;;;4.70;3.55;;;;;;;;;;8281498;28;20388;-71
2022/08/31 15:30:13;;;;;;;5.55;3.40;;;;;;;;;;8278550;28;20023;-71
2022/08/31 15:34:21;;;;;;;5.20;3.33;;;;;;;;;;8269738;28;20044;-72
2022/08/31 15:38:23;;;;;;;5.60;3.40;;;;;;;;;;8280808;28;20056;-71
2022/08/31 15:42:24;;;;;;;6.22;3.70;;;;;;;;;;8267817;28;20037;-72
2022/08/31 15:50:46;;;;;;;3.85;3.53;;;;;;;;;;8278034;28;20833;-71
2022/08/31 15:54:49;;;;;;;4.57;3.83;;;;;;;;;;8282745;28;20033;-72
2022/08/31 15:58:55;;;;;;;4.53;3.10;;;;;;;;;;8269456;28;20029;-72
2022/08/31 16:02:56;;;;;;;5.40;3.20;;;;;;;;;;8270480;28;20083;-71
2022/08/31 16:06:58;;;;;;;3.40;3.13;;;;;;;;;;8279624;28;20025;-72
2022/08/31 16:10:58;;;;;;;3.55;2.85;;;;;;;;;;8279623;28;20020;-72
2022/08/31 16:14:58;;;;;;;3.22;2.83;;;;;;;;;;8278612;28;20021;-71
2022/08/31 16:19:03;;;;;;;7.53;3.40;;;;;;;;;;8276190;28;20043;-71
2022/08/31 16:23:06;;;;;;;3.45;3.00;;;;;;;;;;8278902;28;20025;-71
2022/08/31 16:27:08;;;;;;;4.65;3.40;;;;;;;;;;8279612;28;20030;-71
2022/08/31 16:31:11;;;;;;;3.35;3.00;;;;;;;;;;8276686;28;20036;-71
2022/08/31 16:35:11;;;;;;;5.68;3.15;;;;;;;;;;8277296;28;20024;-72
2022/08/31 16:39:12;;;;;;;3.47;3.13;;;;;;;;;;8278776;28;20053;-72
2022/08/31 16:43:13;;;;;;;3.42;3.13;;;;;;;;;;8280687;28;20141;-72
2022/08/31 16:47:14;;;;;;;4.80;2.95;;;;;;;;;;8277539;28;20097;-72
2022/08/31 16:51:14;;;;;;;5.43;3.20;;;;;;;;;;8278274;28;20028;-72
2022/08/31 16:55:15;;;;;;;5.57;3.30;;;;;;;;;;8279734;28;20018;-72
2022/08/31 16:59:16;;;;;;;8.05;3.20;;;;;;;;;;8279965;28;20029;-72
2022/08/31 17:03:16;;;;;;;5.07;3.00;;;;;;;;;;8277550;28;20164;-72
2022/08/31 17:07:17;;;;;;;3.55;3.22;;;;;;;;;;8266575;28;20295;-72
2022/08/31 17:11:19;;;;;;;4.05;3.03;;;;;;;;;;8284892;28;20036;-72
2022/08/31 17:15:22;;;;;;;3.70;3.20;;;;;;;;;;8282383;28;20032;-72
2022/08/31 17:19:24;;;;;;;5.43;3.13;;;;;;;;;;8285692;28;20771;-72
2022/08/31 17:23:25;;;;;;;3.25;2.90;;;;;;;;;;8282068;28;20033;-72
2022/08/31 17:27:25;;;;;;;2.90;2.60;;;;;;;;;;8285414;28;20558;-72
2022/08/31 17:31:26;;;;;;;3.15;2.65;;;;;;;;;;8281468;28;20213;-71
2022/08/31 17:35:28;;;;;;;2.70;2.50;;;;;;;;;;8283312;28;20041;-71
2022/08/31 17:39:28;;;;;;;3.60;2.75;;;;;;;;;;8285136;28;20044;-72
2022/08/31 17:43:29;;;;;;;2.85;2.42;;;;;;;;;;8283987;28;20891;-72
2022/08/31 17:47:31;;;;;;;4.70;2.42;;;;;;;;;;8272518;28;20057;-72
2022/08/31 17:51:32;;;;;;;5.20;2.65;;;;;;;;;;8284517;28;20049;-71
2022/08/31 17:55:33;;;;;;;2.88;2.50;;;;;;;;;;8273788;28;20034;-72
2022/08/31 17:59:35;;;;;;;3.95;2.42;;;;;;;;;;8275219;28;20707;-72
2022/08/31 18:03:35;;;;;;;2.55;2.30;;;;;;;;;;8281389;28;20069;-72
2022/08/31 18:07:36;;;;;;;2.58;2.38;;;;;;;;;;8283276;28;20053;-73
2022/08/31 18:11:44;;;;;;;3.33;2.33;;;;;;;;;;8284319;28;20033;-72
2022/08/31 18:15:46;;;;;;;5.03;2.70;;;;;;;;;;8281903;28;20051;-73
2022/08/31 18:19:47;;;;;;;3.90;2.72;;;;;;;;;;8282369;28;20028;-72
2022/08/31 18:23:51;;;;;;;4.55;3.00;;;;;;;;;;8280769;28;20026;-72
2022/08/31 18:27:51;;;;;;;4.45;2.90;;;;;;;;;;8282310;28;20044;-71
2022/08/31 18:31:55;;;;;;;6.13;3.00;;;;;;;;;;8279836;28;20038;-72
2022/08/31 18:35:55;;;;;;;;;;;;;;;;;;8282304;28;20274;-72
2022/08/31 18:48:34;;;;;;;2.70;2.50;;;;;;;;;;8282361;28;20049;-72
2022/08/31 18:52:38;;;;;;;4.97;2.53;;;;;;;;;;8280612;28;20601;-71
2022/08/31 18:56:38;;;;;;;;;;;;;;;;;;8284229;28;20382;-71
2022/08/31 19:00:38;;;;;;;5.18;3.15;;;;;;;;;;8278315;28;20066;-71
2022/08/31 19:04:39;;;;;;;3.97;3.13;;;;;;;;;;8280818;28;20479;-71
2022/08/31 19:08:39;;;;;;;4.75;3.10;;;;;;;;;;8278856;28;20510;-70
2022/08/31 19:12:41;;;;;;;5.15;2.80;;;;;;;;;;8270142;28;20776;-69
2022/08/31 19:16:41;;;;;;;4.18;2.90;;;;;;;;;;8280032;28;20041;-70
2022/08/31 19:20:42;;;;;;;7.47;3.05;;;;;;;;;;8265647;28;20529;-71
2022/08/31 19:24:42;;;;;;;5.18;3.30;;;;;;;;;;8281166;28;20169;-71
2022/08/31 19:28:47;;;;;;;8.50;2.90;;;;;;;;;;8279832;28;20025;-71
2022/08/31 19:32:47;;;;;;;5.43;3.13;;;;;;;;;;8279086;28;20049;-71
2022/08/31 19:36:48;;;;;;;9.00;2.65;;;;;;;;;;8282636;28;20022;-70
2022/08/31 19:40:48;;;;;;;3.80;2.67;;;;;;;;;;8271376;28;20459;-70
2022/08/31 19:44:51;;;;;;;8.15;3.20;;;;;;;;;;8267474;28;20284;-70
2022/08/31 19:48:52;;;;;;;8.77;3.30;;;;;;;;;;8279936;28;20096;-70
2022/08/31 19:52:52;;;;;;;6.00;3.22;;;;;;;;;;8275495;28;20021;-71
2022/08/31 19:56:53;;;;;;;3.97;2.90;;;;;;;;;;8271122;28;20171;-71
2022/08/31 20:00:53;;;;;;;5.18;3.10;;;;;;;;;;8268118;28;20273;-70
2022/08/31 20:04:54;;;;;;;7.90;3.28;;;;;;;;;;8265524;28;20124;-71
2022/08/31 20:08:54;;;;;;;3.65;2.90;;;;;;;;;;8269130;28;20088;-71
2022/08/31 20:12:55;;;;;;;7.53;3.20;;;;;;;;;;8272503;28;20029;-71
2022/08/31 20:16:57;;;;;;;4.32;3.15;;;;;;;;;;8277539;28;20276;-71
2022/08/31 20:20:59;;;;;;;6.30;3.30;;;;;;;;;;8277361;28;20462;-71
2022/08/31 20:25:00;;;;;;;4.07;3.03;;;;;;;;;;8280930;28;20056;-70
2022/08/31 20:29:03;;;;;;;5.50;3.25;;;;;;;;;;8280949;28;20067;-71
2022/08/31 20:33:04;;;;;;;5.47;3.03;;;;;;;;;;8276472;28;20044;-71
2022/08/31 20:37:05;;;;;;;4.60;3.15;;;;;;;;;;8271276;28;20788;-70
2022/08/31 20:41:05;;;;;;;3.40;2.90;;;;;;;;;;8278782;28;20029;-70
2022/08/31 20:45:06;;;;;;;4.63;3.10;;;;;;;;;;8273206;28;20060;-71
2022/08/31 20:49:21;;;;;;;3.25;2.97;;;;;;;;;;8286630;28;20021;-70
2022/08/31 20:53:23;;;;;;;3.33;3.03;;;;;;;;;;8274460;28;20033;-70
2022/08/31 20:57:23;;;;;;;5.07;3.60;;;;;;;;;;8286378;28;20105;-70
2022/08/31 21:01:24;;;;;;;3.45;3.15;;;;;;;;;;8284960;28;20050;-70
2022/08/31 21:05:28;;;;;;;3.67;3.20;;;;;;;;;;8283600;28;20033;-70
2022/08/31 21:09:28;;;;;;;;;;;;;;;;;;8285451;28;20099;-71
2022/08/31 21:13:28;;;;;;;4.35;3.40;;;;;;;;;;8283221;28;20357;-70
2022/08/31 21:17:30;;;;;;;6.82;3.30;;;;;;;;;;8284648;28;20808;-70
2022/08/31 21:21:30;;;;;;;4.60;3.22;;;;;;;;;;8283682;28;20033;-70
2022/08/31 21:25:30;;;;;;;3.50;3.17;;;;;;;;;;8285341;28;20562;-70
2022/08/31 21:29:30;;;;;;;4.38;3.20;;;;;;;;;;8285425;28;20025;-70
2022/08/31 21:33:34;;;;;;;6.70;3.42;;;;;;;;;;8283103;28;20430;-70
2022/08/31 21:37:34;;;;;;;3.88;3.33;;;;;;;;;;8283730;28;20021;-70
2022/08/31 21:41:35;;;;;;;3.95;3.50;;;;;;;;;;8283713;28;20110;-70
2022/08/31 21:45:35;;;;;;;3.38;3.08;;;;;;;;;;8284113;28;21107;-70
2022/08/31 21:49:36;;;;;;;4.22;3.53;;;;;;;;;;8284099;28;20022;-70
2022/08/31 21:53:36;;;;;;;3.42;3.10;;;;;;;;;;8282566;28;20977;-70
2022/08/31 21:57:38;;;;;;;3.13;2.83;;;;;;;;;;8283692;28;20029;-70
2022/08/31 22:01:38;;;;;;;3.17;2.85;;;;;;;;;;8282487;28;20041;-70
2022/08/31 22:05:42;;;;;;;3.03;2.83;;;;;;;;;;8281745;28;20493;-70
2022/08/31 22:09:43;;;;;;;4.20;3.10;;;;;;;;;;8282005;28;20022;-70
2022/08/31 22:13:47;;;;;;;5.23;3.33;;;;;;;;;;8280720;28;20124;-70
2022/08/31 22:17:48;;;;;;;3.80;3.40;;;;;;;;;;8284595;28;20958;-70
2022/08/31 22:21:50;;;;;;;4.78;3.53;;;;;;;;;;8281013;28;20413;-70
2022/08/31 22:25:50;;;;;;;3.38;3.13;;;;;;;;;;8283650;28;21114;-70
2022/08/31 22:29:51;;;;;;;3.90;3.40;;;;;;;;;;8281616;28;20080;-70
2022/08/31 22:33:52;;;;;;;5.68;3.03;;;;;;;;;;8280755;28;20073;-70
2022/08/31 22:37:52;;;;;;;3.45;2.92;;;;;;;;;;8284084;28;20140;-70
2022/08/31 22:41:53;;;;;;;3.45;3.15;;;;;;;;;;8270944;28;20136;-72
2022/08/31 22:45:53;;;;;;;3.72;3.00;;;;;;;;;;8281754;28;20048;-70
2022/08/31 22:49:53;;;;;;;3.30;3.00;;;;;;;;;;8281366;28;20128;-70
2022/08/31 22:53:54;;;;;;;5.03;2.95;;;;;;;;;;8280712;28;20549;-70
2022/08/31 22:57:54;;;;;;;3.30;2.80;;;;;;;;;;8281182;28;20152;-70
2022/08/31 23:02:00;;;;;;;3.03;2.78;;;;;;;;;;8279906;28;20391;-70
2022/08/31 23:06:00;;;;;;;2.65;2.45;;;;;;;;;;8282740;28;20072;-71
2022/08/31 23:10:01;;;;;;;3.08;2.63;;;;;;;;;;8284613;28;20091;-70
2022/08/31 23:14:03;;;;;;;3.05;2.53;;;;;;;;;;8285922;28;20103;-70
2022/08/31 23:18:08;;;;;;;4.25;2.50;;;;;;;;;;8283200;28;20038;-71
2022/08/31 23:22:10;;;;;;;4.15;2.50;;;;;;;;;;8276871;28;20029;-70
2022/08/31 23:26:11;;;;;;;2.72;2.50;;;;;;;;;;8284118;28;20026;-70
2022/08/31 23:30:12;;;;;;;2.78;2.45;;;;;;;;;;8284212;28;20022;-70
2022/08/31 23:34:13;;;;;;;3.00;2.35;;;;;;;;;;8283607;28;20038;-71
2022/08/31 23:38:13;;;;;;;3.10;2.83;;;;;;;;;;8282508;28;20105;-70
2022/08/31 23:42:15;;;;;;;4.47;2.22;;;;;;;;;;8283373;28;20365;-70
2022/08/31 23:46:15;;;;;;;3.80;2.47;;;;;;;;;;8282956;28;20088;-70
2022/08/31 23:50:15;;;;;;;2.47;2.30;;;;;;;;;;8281189;28;20493;-70
2022/08/31 23:54:17;;;;;;;3.55;2.30;;;;;;;;;;8284396;28;20121;-70
2022/08/31 23:58:18;;;;;;;3.00;2.30;;;;;;;;;;8282461;28;20044;-70
